Time;durP1;ratioP1;P1;durP2;ratioP2;P2;SDS_P1;SDS_P2;PMS_P1;PMS_P2;Temp;Humidity;BMP_temperature;BMP_pressure;BME280_temperature;BME280_humidity;BME280_pressure;Samples;Min_cycle;Max_cycle;Signal;HPM_P1;HPM_P2
2022/08/17 00:00:47;;;;;;;7.57;6.87;;;28.70;43.40;;;;;;4950117;28;20472;-44
2022/08/17 00:03:15;;;;;;;6.43;5.93;;;28.60;43.50;;;;;;4943833;28;20486;-44
2022/08/17 00:05:51;;;;;;;6.97;6.40;;;28.60;43.50;;;;;;4947727;28;20543;-44
2022/08/17 00:08:20;;;;;;;6.37;5.87;;;28.60;43.50;;;;;;4950379;28;20550;-44
2022/08/17 00:10:47;;;;;;;7.00;6.27;;;28.60;43.50;;;;;;4947033;28;20491;-45
2022/08/17 00:13:26;;;;;;;6.33;5.80;;;28.60;43.60;;;;;;4947773;28;20471;-44
2022/08/17 00:15:55;;;;;;;6.60;6.00;;;28.60;43.50;;;;;;4945357;28;20495;-45
2022/08/17 00:18:20;;;;;;;6.93;6.33;;;28.50;43.60;;;;;;4945448;28;20454;-45
2022/08/17 00:20:46;;;;;;;6.40;5.90;;;28.50;43.80;;;;;;4951971;28;20820;-45
2022/08/17 00:23:15;;;;;;;7.23;6.63;;;28.50;43.80;;;;;;4950014;28;20382;-45
2022/08/17 00:25:42;;;;;;;6.00;5.60;;;28.40;44.00;;;;;;4950359;28;20562;-45
2022/08/17 00:28:08;;;;;;;6.50;6.10;;;28.30;44.00;;;;;;4954134;28;20527;-45
2022/08/17 00:30:34;;;;;;;6.83;6.33;;;28.30;44.00;;;;;;4953149;28;20538;-47
2022/08/17 00:33:06;;;;;;;6.77;6.20;;;28.20;43.90;;;;;;4948316;28;20273;-44
2022/08/17 00:35:33;;;;;;;6.93;6.30;;;28.20;44.20;;;;;;4948608;28;20498;-45
2022/08/17 00:37:58;;;;;;;6.10;5.70;;;28.10;44.30;;;;;;4943845;28;20459;-44
2022/08/17 00:40:25;;;;;;;6.93;6.20;;;28.00;44.50;;;;;;4952792;28;20447;-44
2022/08/17 00:42:52;;;;;;;6.43;5.93;;;28.10;44.60;;;;;;4952645;28;20251;-44
2022/08/17 00:45:19;;;;;;;6.93;6.23;;;28.10;44.60;;;;;;4948533;28;20450;-44
2022/08/17 00:47:45;;;;;;;6.57;6.07;;;28.00;44.50;;;;;;4953015;28;20439;-44
2022/08/17 00:50:16;;;;;;;6.70;6.20;;;28.10;44.60;;;;;;4950224;28;20451;-44
2022/08/17 00:52:53;;;;;;;7.57;6.13;;;28.10;44.50;;;;;;4950651;28;20555;-44
2022/08/17 00:55:20;;;;;;;6.47;5.87;;;28.10;44.40;;;;;;4950012;28;21060;-44
2022/08/17 00:57:49;;;;;;;7.10;6.60;;;28.10;44.50;;;;;;4948282;28;20459;-44
2022/08/17 01:00:25;;;;;;;6.67;6.07;;;28.00;44.40;;;;;;4952155;28;20455;-44
2022/08/17 01:03:13;;;;;;;6.87;6.37;;;27.90;44.50;;;;;;4947652;28;20451;-44
2022/08/17 01:05:40;;;;;;;6.50;5.90;;;27.90;44.60;;;;;;4950628;28;20443;-44
2022/08/17 01:08:11;;;;;;;8.00;6.50;;;27.90;44.70;;;;;;4952190;28;20447;-44
2022/08/17 01:10:46;;;;;;;6.90;6.40;;;27.90;44.70;;;;;;4951072;28;20828;-44
2022/08/17 01:13:12;;;;;;;6.63;6.03;;;27.90;44.70;;;;;;4951281;28;20533;-45
2022/08/17 01:15:44;;;;;;;11.03;6.60;;;27.80;44.70;;;;;;4950607;28;20577;-45
2022/08/17 01:18:12;;;;;;;7.20;6.50;;;27.80;44.90;;;;;;4949317;28;20475;-44
2022/08/17 01:20:46;;;;;;;6.47;6.07;;;27.70;45.00;;;;;;4948646;28;20444;-44
2022/08/17 01:23:12;;;;;;;7.27;6.77;;;27.70;45.10;;;;;;4950774;28;20480;-44
2022/08/17 01:25:38;;;;;;;7.10;6.50;;;27.70;45.10;;;;;;4950145;28;20483;-45
2022/08/17 01:28:04;;;;;;;8.20;6.77;;;27.70;45.20;;;;;;4950717;28;20447;-44
2022/08/17 01:30:30;;;;;;;7.13;6.53;;;27.70;45.10;;;;;;4948331;28;20554;-45
2022/08/17 01:32:56;;;;;;;7.33;6.63;;;27.70;45.10;;;;;;4949909;28;20444;-44
2022/08/17 01:35:22;;;;;;;7.90;7.33;;;27.70;45.10;;;;;;4946597;28;20518;-45
2022/08/17 01:37:48;;;;;;;7.33;6.63;;;27.70;45.00;;;;;;4944693;28;20286;-44
2022/08/17 01:40:23;;;;;;;7.27;6.57;;;27.70;45.20;;;;;;4953051;28;20561;-44
2022/08/17 01:43:02;;;;;;;6.50;6.10;;;27.60;45.10;;;;;;4950849;28;20286;-46
2022/08/17 01:45:37;;;;;;;6.97;6.40;;;27.60;45.30;;;;;;4946710;28;20492;-44
2022/08/17 01:48:03;;;;;;;6.73;6.20;;;27.60;45.20;;;;;;4942022;28;20539;-44
2022/08/17 01:50:33;;;;;;;7.00;6.50;;;27.50;45.20;;;;;;4949475;28;20454;-45
2022/08/17 01:53:14;;;;;;;6.90;6.47;;;27.50;45.40;;;;;;4945077;28;20940;-44
2022/08/17 01:55:46;;;;;;;6.37;5.80;;;27.40;45.40;;;;;;4946038;28;20531;-44
2022/08/17 01:58:12;;;;;;;8.17;7.37;;;27.40;45.40;;;;;;4950164;28;21006;-44
2022/08/17 02:00:39;;;;;;;7.17;6.10;;;27.40;45.40;;;;;;4948745;28;20481;-44
2022/08/17 02:03:05;;;;;;;7.13;6.53;;;27.40;45.40;;;;;;4948737;28;20443;-44
2022/08/17 02:05:31;;;;;;;6.53;5.33;;;27.40;45.40;;;;;;4948461;28;20450;-45
2022/08/17 02:07:58;;;;;;;6.97;6.43;;;27.40;45.40;;;;;;4949942;28;20447;-43
2022/08/17 02:10:25;;;;;;;7.30;6.80;;;27.30;45.40;;;;;;4950746;28;20864;-44
2022/08/17 02:12:51;;;;;;;6.70;6.20;;;27.30;45.40;;;;;;4949198;28;20594;-45
2022/08/17 02:15:17;;;;;;;6.60;6.07;;;27.20;45.60;;;;;;4945510;28;20487;-44
2022/08/17 02:17:43;;;;;;;6.40;5.90;;;27.10;45.90;;;;;;4952507;28;20214;-44
2022/08/17 02:20:09;;;;;;;7.03;6.43;;;27.10;45.90;;;;;;4951417;28;20538;-44
2022/08/17 02:22:36;;;;;;;6.67;6.13;;;27.10;45.80;;;;;;4950369;28;20203;-46
2022/08/17 02:25:04;;;;;;;6.63;6.13;;;27.10;46.00;;;;;;4950115;28;20566;-44
2022/08/17 02:27:30;;;;;;;6.97;6.23;;;27.10;45.80;;;;;;4951407;28;20444;-44
2022/08/17 02:29:56;;;;;;;6.53;6.13;;;27.10;45.70;;;;;;4949927;28;20447;-44
2022/08/17 02:32:24;;;;;;;6.17;5.57;;;27.20;45.60;;;;;;4945883;28;20294;-43
2022/08/17 02:34:50;;;;;;;7.90;7.10;;;27.10;45.60;;;;;;4945223;28;20270;-44
2022/08/17 02:37:17;;;;;;;6.60;6.00;;;27.10;45.70;;;;;;4947359;28;20455;-45
2022/08/17 02:39:44;;;;;;;7.20;6.60;;;27.10;45.70;;;;;;4949990;28;20279;-44
2022/08/17 02:42:11;;;;;;;7.90;7.30;;;26.90;45.80;;;;;;4948445;28;20455;-44
2022/08/17 02:44:37;;;;;;;6.30;5.80;;;26.80;46.10;;;;;;4946187;28;20856;-43
2022/08/17 02:47:03;;;;;;;6.70;6.10;;;26.70;46.60;;;;;;4944241;28;20455;-44
2022/08/17 02:49:30;;;;;;;7.80;7.20;;;26.60;46.90;;;;;;4946004;28;20222;-44
2022/08/17 02:51:57;;;;;;;7.50;6.90;;;26.60;46.90;;;;;;4947114;28;20447;-44
2022/08/17 02:54:23;;;;;;;6.40;5.90;;;26.60;47.00;;;;;;4947499;28;20216;-44
2022/08/17 02:56:49;;;;;;;6.57;6.07;;;26.60;46.80;;;;;;4948628;28;20526;-45
2022/08/17 02:59:15;;;;;;;6.53;6.03;;;26.70;46.70;;;;;;4947632;28;20471;-44
2022/08/17 03:01:40;;;;;;;7.20;6.70;;;26.70;46.60;;;;;;4945655;28;20715;-44
2022/08/17 03:04:06;;;;;;;7.33;6.73;;;26.80;46.50;;;;;;4950466;28;20208;-44
2022/08/17 03:06:31;;;;;;;7.63;6.80;;;26.80;46.40;;;;;;4948234;28;20196;-45
2022/08/17 03:08:57;;;;;;;6.90;6.20;;;26.80;46.30;;;;;;4951489;28;20203;-44
2022/08/17 03:11:23;;;;;;;7.60;6.87;;;26.80;46.30;;;;;;4946512;28;20223;-45
2022/08/17 03:13:49;;;;;;;7.10;6.60;;;26.80;46.40;;;;;;4944596;28;20759;-44
2022/08/17 03:16:14;;;;;;;6.03;5.53;;;26.80;46.20;;;;;;4946535;28;20204;-45
2022/08/17 03:18:40;;;;;;;6.33;5.83;;;26.80;46.40;;;;;;4950450;28;20231;-46
2022/08/17 03:21:07;;;;;;;7.50;6.90;;;26.80;46.50;;;;;;4949194;28;20202;-44
2022/08/17 03:23:39;;;;;;;6.90;6.20;;;26.80;46.40;;;;;;4947625;28;20657;-48
2022/08/17 03:26:09;;;;;;;7.30;6.57;;;26.80;46.50;;;;;;4949276;28;20523;-44
2022/08/17 03:28:38;;;;;;;7.70;7.00;;;26.80;46.40;;;;;;4946975;28;20500;-46
2022/08/17 03:31:05;;;;;;;6.53;6.03;;;26.70;46.50;;;;;;4942835;28;20527;-47
2022/08/17 03:33:31;;;;;;;7.80;7.10;;;26.70;46.50;;;;;;4949729;28;20451;-45
2022/08/17 03:35:57;;;;;;;7.40;6.80;;;26.70;46.50;;;;;;4946663;28;20667;-44
2022/08/17 03:38:23;;;;;;;7.23;6.53;;;26.70;46.40;;;;;;4942904;28;20577;-44
2022/08/17 03:40:50;;;;;;;7.43;6.73;;;26.70;46.50;;;;;;4940618;28;20615;-45
2022/08/17 03:43:16;;;;;;;7.97;7.17;;;26.60;46.70;;;;;;4949731;28;20447;-44
2022/08/17 03:57:02;;;;;;;7.40;6.70;;;26.10;47.80;;;;;;4951595;29;20494;-45
2022/08/17 03:59:28;;;;;;;7.33;6.70;;;26.00;47.80;;;;;;4944133;29;20447;-44
2022/08/17 04:01:57;;;;;;;6.60;6.20;;;26.00;47.70;;;;;;4944839;29;20463;-48
2022/08/17 04:04:23;;;;;;;7.57;6.80;;;26.10;47.70;;;;;;4944940;28;20890;-46
2022/08/17 04:06:49;;;;;;;6.73;6.10;;;26.10;47.40;;;;;;4944519;28;20564;-46
2022/08/17 04:09:15;;;;;;;7.63;7.03;;;26.20;47.30;;;;;;4948561;28;20196;-46
2022/08/17 04:11:40;;;;;;;7.70;7.20;;;26.30;47.20;;;;;;4945816;28;20648;-44
2022/08/17 04:14:06;;;;;;;7.40;6.70;;;26.30;47.10;;;;;;4947300;28;20256;-44
2022/08/17 04:16:33;;;;;;;7.47;6.87;;;26.40;46.80;;;;;;4947008;28;20216;-44
2022/08/17 04:19:00;;;;;;;6.63;5.93;;;26.40;46.80;;;;;;4947470;28;20278;-45
2022/08/17 04:21:25;;;;;;;7.97;7.30;;;26.40;46.60;;;;;;4947291;28;20589;-48
2022/08/17 04:23:51;;;;;;;8.20;6.03;;;26.40;46.60;;;;;;4947424;28;20935;-45
2022/08/17 04:26:18;;;;;;;6.77;6.23;;;26.40;46.50;;;;;;4947306;28;20200;-45
2022/08/17 04:28:44;;;;;;;7.70;7.00;;;26.40;46.50;;;;;;4948280;28;20645;-47
2022/08/17 04:31:11;;;;;;;7.00;6.50;;;26.40;46.50;;;;;;4943347;28;20527;-46
2022/08/17 04:33:38;;;;;;;7.33;6.57;;;26.40;46.80;;;;;;4941700;28;20283;-45
2022/08/17 04:36:06;;;;;;;7.90;7.20;;;26.30;46.80;;;;;;4943531;28;20490;-45
2022/08/17 04:38:36;;;;;;;8.40;7.80;;;26.30;46.80;;;;;;4946579;28;20562;-44
2022/08/17 04:43:49;;;;;;;7.73;7.07;;;26.10;47.30;;;;;;4944491;28;20454;-47
2022/08/17 04:46:19;;;;;;;8.13;7.27;;;26.10;47.50;;;;;;4941386;28;20456;-44
2022/08/17 04:48:48;;;;;;;9.33;8.20;;;26.00;47.50;;;;;;4946626;28;20479;-47
2022/08/17 04:51:20;;;;;;;11.40;9.67;;;26.10;47.50;;;;;;4949470;28;20447;-49
2022/08/17 04:53:49;;;;;;;9.70;8.50;;;26.10;47.40;;;;;;4948218;28;20455;-44
2022/08/17 04:56:15;;;;;;;9.70;8.47;;;26.10;47.60;;;;;;4948283;28;20491;-45
2022/08/17 04:58:46;;;;;;;12.17;8.97;;;26.10;47.50;;;;;;4942339;28;20439;-45
2022/08/17 05:01:12;;;;;;;9.10;8.30;;;26.10;47.20;;;;;;4943808;28;20519;-45
2022/08/17 05:03:38;;;;;;;9.07;7.47;;;26.20;47.30;;;;;;4946789;28;20447;-46
2022/08/17 05:06:04;;;;;;;11.83;7.80;;;26.20;47.30;;;;;;4948947;28;20513;-48
2022/08/17 05:08:29;;;;;;;8.97;8.17;;;26.30;47.20;;;;;;4950344;28;20193;-45
2022/08/17 05:10:55;;;;;;;8.43;7.53;;;26.30;47.20;;;;;;4951285;29;20674;-44
2022/08/17 05:13:24;;;;;;;7.63;6.93;;;26.30;47.10;;;;;;4948254;28;20238;-44
2022/08/17 05:15:56;;;;;;;8.13;7.33;;;26.30;47.10;;;;;;4949626;28;20606;-45
2022/08/17 05:18:23;;;;;;;8.83;7.93;;;26.30;47.20;;;;;;4949879;28;20535;-44
2022/08/17 05:20:48;;;;;;;7.53;6.93;;;26.30;47.30;;;;;;4944273;28;20531;-45
2022/08/17 05:23:16;;;;;;;12.70;6.70;;;26.30;47.20;;;;;;4951113;28;20515;-47
2022/08/17 05:25:45;;;;;;;7.97;7.23;;;26.30;47.10;;;;;;4952237;28;20290;-45
2022/08/17 05:28:11;;;;;;;8.80;8.00;;;26.00;47.80;;;;;;4947793;28;20555;-45
2022/08/17 05:30:38;;;;;;;8.47;7.87;;;25.60;48.80;;;;;;4950341;28;20811;-46
2022/08/17 05:33:11;;;;;;;7.47;6.87;;;25.60;48.90;;;;;;4949597;28;20501;-45
2022/08/17 05:35:42;;;;;;;8.17;7.47;;;25.50;49.10;;;;;;4945369;28;20538;-46
2022/08/17 05:38:09;;;;;;;7.77;7.17;;;25.50;49.10;;;;;;4951907;28;20470;-47
2022/08/17 05:40:35;;;;;;;8.63;7.70;;;25.60;49.10;;;;;;4948856;28;20810;-46
2022/08/17 05:43:10;;;;;;;7.90;7.30;;;25.60;49.10;;;;;;4949316;28;20507;-46
2022/08/17 05:45:39;;;;;;;7.40;6.80;;;25.60;49.20;;;;;;4944434;28;20465;-46
2022/08/17 05:48:07;;;;;;;7.20;6.60;;;25.70;49.50;;;;;;4945786;28;20451;-46
2022/08/17 05:50:52;;;;;;;8.50;7.60;;;25.70;49.70;;;;;;4945726;28;21589;-48
2022/08/17 05:53:37;;;;;;;7.33;6.73;;;25.70;49.70;;;;;;4946420;28;20454;-45
2022/08/17 05:56:12;;;;;;;8.13;7.53;;;25.70;49.50;;;;;;4941552;28;20495;-46
2022/08/17 05:59:19;;;;;;;9.57;7.50;;;25.70;49.50;;;;;;4951881;28;20462;-46
2022/08/17 06:02:04;;;;;;;7.70;6.90;;;25.80;49.50;;;;;;4946641;28;20459;-45
2022/08/17 06:04:45;;;;;;;7.00;6.50;;;25.90;49.50;;;;;;4948105;28;20553;-45
2022/08/17 06:07:24;;;;;;;7.27;6.67;;;25.90;49.40;;;;;;4953330;29;20530;-45
2022/08/17 06:09:58;;;;;;;7.23;6.63;;;25.90;49.50;;;;;;4949611;28;20964;-45
2022/08/17 06:12:40;;;;;;;8.40;7.70;;;25.90;49.70;;;;;;4946574;28;20455;-45
2022/08/17 06:15:06;;;;;;;9.07;7.57;;;25.90;49.40;;;;;;4948710;28;20487;-47
2022/08/17 06:17:33;;;;;;;7.87;7.07;;;26.00;49.10;;;;;;4946371;28;20460;-48
2022/08/17 06:20:04;;;;;;;7.73;7.07;;;25.90;49.20;;;;;;4944008;28;20223;-45
2022/08/17 06:22:39;;;;;;;9.63;8.30;;;25.90;49.50;;;;;;4947170;28;20480;-45
2022/08/17 06:25:17;;;;;;;7.73;7.13;;;25.60;50.20;;;;;;4946731;28;20454;-51
2022/08/17 06:28:13;;;;;;;7.80;7.23;;;25.50;50.30;;;;;;4943676;28;20443;-47
2022/08/17 06:31:09;;;;;;;8.60;7.80;;;25.70;50.10;;;;;;4939276;28;20471;-45
2022/08/17 06:33:38;;;;;;;7.43;6.87;;;25.80;50.00;;;;;;4946795;28;20839;-45
2022/08/17 06:36:34;;;;;;;7.53;6.83;;;25.80;50.00;;;;;;4944485;28;20495;-47
2022/08/17 06:39:56;;;;;;;7.37;6.63;;;26.00;49.60;;;;;;4943921;28;20478;-45
2022/08/17 06:42:29;;;;;;;7.43;6.83;;;26.10;48.80;;;;;;4889045;29;20500;-45
2022/08/17 06:45:09;;;;;;;6.93;6.33;;;26.20;48.50;;;;;;4891045;29;20493;-45
2022/08/17 06:47:42;;;;;;;10.20;6.63;;;26.40;48.50;;;;;;4933369;29;20455;-46
2022/08/17 06:50:20;;;;;;;7.40;6.80;;;26.60;48.00;;;;;;4946611;28;20467;-46
2022/08/17 06:52:52;;;;;;;7.37;6.67;;;26.60;47.90;;;;;;4950244;28;20448;-46
2022/08/17 06:55:29;;;;;;;8.60;7.20;;;26.40;48.70;;;;;;4947258;28;20842;-46
2022/08/17 06:58:01;;;;;;;9.23;8.33;;;26.40;48.90;;;;;;4952254;29;20482;-45
2022/08/17 07:00:36;;;;;;;7.50;6.90;;;26.30;49.20;;;;;;4950480;28;20705;-46
2022/08/17 07:03:17;;;;;;;8.27;7.67;;;26.20;49.60;;;;;;4948444;29;20513;-45
2022/08/17 07:06:05;;;;;;;6.50;5.90;;;26.20;49.70;;;;;;4950559;28;20445;-44
2022/08/17 07:08:40;;;;;;;6.20;5.60;;;26.50;49.10;;;;;;4944936;28;20447;-44
2022/08/17 07:11:11;;;;;;;7.20;6.53;;;26.80;48.20;;;;;;4949960;29;20550;-46
2022/08/17 07:13:47;;;;;;;7.00;6.33;;;26.80;47.70;;;;;;4950862;29;20483;-45
2022/08/17 07:16:22;;;;;;;7.60;7.00;;;27.10;47.40;;;;;;4945463;28;20535;-45
2022/08/17 07:18:53;;;;;;;7.60;6.90;;;27.40;46.80;;;;;;4945076;28;20505;-44
2022/08/17 07:21:24;;;;;;;6.50;5.70;;;27.60;46.20;;;;;;4947474;29;20466;-44
2022/08/17 07:24:10;;;;;;;6.87;6.13;;;27.70;45.70;;;;;;4947573;29;20550;-48
2022/08/17 07:26:37;;;;;;;6.23;5.73;;;28.10;45.20;;;;;;4952086;29;21002;-48
2022/08/17 07:29:04;;;;;;;6.07;5.50;;;28.20;44.50;;;;;;4945296;28;20930;-46
2022/08/17 07:31:32;;;;;;;5.63;5.27;;;28.50;44.20;;;;;;4942940;28;20464;-45
2022/08/17 07:34:09;;;;;;;5.70;5.30;;;28.50;43.50;;;;;;4944933;28;20479;-45
2022/08/17 07:36:35;;;;;;;6.63;5.67;;;28.70;43.30;;;;;;4949141;28;20473;-46
2022/08/17 07:39:03;;;;;;;6.53;5.67;;;28.80;42.90;;;;;;4945392;28;21143;-45
2022/08/17 07:41:33;;;;;;;11.00;5.73;;;29.00;41.90;;;;;;4950604;28;20602;-45
2022/08/17 07:43:59;;;;;;;6.13;5.63;;;29.20;41.50;;;;;;4947580;28;20531;-45
2022/08/17 07:49:29;;;;;;;6.07;5.47;;;29.60;40.70;;;;;;4948078;28;20241;-46
2022/08/17 07:52:00;;;;;;;6.20;5.70;;;29.80;40.80;;;;;;4948760;28;20435;-45
2022/08/17 07:54:34;;;;;;;6.03;5.47;;;29.80;40.40;;;;;;4948505;28;20479;-45
2022/08/17 07:57:13;;;;;;;5.60;5.17;;;29.90;40.40;;;;;;4947231;28;20815;-45
2022/08/17 07:59:59;;;;;;;6.30;5.70;;;30.10;40.80;;;;;;4945226;28;20451;-45
2022/08/17 08:02:29;;;;;;;6.90;6.20;;;30.40;40.10;;;;;;4945225;28;20451;-46
2022/08/17 08:05:03;;;;;;;8.13;5.90;;;30.30;39.80;;;;;;4947280;28;20550;-48
2022/08/17 08:07:37;;;;;;;6.67;5.40;;;30.10;40.10;;;;;;4947470;28;20479;-46
2022/08/17 08:10:34;;;;;;;6.10;5.50;;;30.30;40.20;;;;;;4947999;28;20460;-44
2022/08/17 08:13:24;;;;;;;6.30;5.27;;;30.50;39.50;;;;;;4941058;28;20999;-45
2022/08/17 08:16:12;;;;;;;5.20;4.73;;;30.60;39.50;;;;;;4944693;28;20491;-45
2022/08/17 08:18:44;;;;;;;7.23;5.00;;;30.70;39.20;;;;;;4948490;28;20537;-46
2022/08/17 08:21:20;;;;;;;7.20;6.30;;;30.80;39.30;;;;;;4949146;28;20527;-46
2022/08/17 08:23:57;;;;;;;8.17;5.20;;;30.70;39.30;;;;;;4943370;28;20466;-46
2022/08/17 08:26:28;;;;;;;5.20;4.80;;;30.70;39.20;;;;;;4946702;28;20447;-45
2022/08/17 08:29:28;;;;;;;6.67;6.07;;;30.60;39.30;;;;;;4942836;28;20453;-49
2022/08/17 08:32:25;;;;;;;8.53;5.23;;;30.60;39.30;;;;;;4943490;28;20543;-46
2022/08/17 08:35:11;;;;;;;5.80;5.40;;;30.50;39.50;;;;;;4947090;28;20499;-47
2022/08/17 08:38:15;;;;;;;6.47;5.83;;;30.30;40.00;;;;;;4951248;28;20455;-46
2022/08/17 08:41:08;;;;;;;5.50;5.03;;;30.30;40.00;;;;;;4946096;28;20451;-45
2022/08/17 08:43:42;;;;;;;6.13;5.63;;;30.20;40.00;;;;;;4943493;28;20501;-46
2022/08/17 08:46:10;;;;;;;6.57;5.97;;;30.30;40.10;;;;;;4949240;28;20455;-46
2022/08/17 08:49:01;;;;;;;5.63;5.13;;;30.30;39.90;;;;;;4952302;28;20451;-47
2022/08/17 08:51:59;;;;;;;5.57;5.07;;;30.10;40.10;;;;;;4948608;28;20565;-46
2022/08/17 08:54:34;;;;;;;6.23;5.73;;;30.20;40.20;;;;;;4952269;28;20479;-49
2022/08/17 08:57:20;;;;;;;6.00;5.50;;;30.10;40.40;;;;;;4953093;28;20459;-47
2022/08/17 09:00:16;;;;;;;10.43;5.60;;;30.30;39.90;;;;;;4949817;28;20451;-45
2022/08/17 09:02:50;;;;;;;6.53;5.97;;;30.50;39.40;;;;;;4952008;28;20538;-45
2022/08/17 09:05:35;;;;;;;6.60;5.77;;;30.50;39.30;;;;;;4952033;28;20538;-44
2022/08/17 09:08:15;;;;;;;6.97;6.27;;;30.60;39.20;;;;;;4953079;28;20465;-48
2022/08/17 09:11:01;;;;;;;6.53;5.80;;;30.60;39.10;;;;;;4952199;28;20447;-48
2022/08/17 09:13:59;;;;;;;6.67;6.17;;;30.60;39.20;;;;;;4949569;28;20506;-49
2022/08/17 09:16:34;;;;;;;6.50;5.80;;;30.70;39.30;;;;;;4946260;28;20887;-49
2022/08/17 09:19:13;;;;;;;7.70;6.17;;;30.70;39.20;;;;;;4951006;28;22020;-45
2022/08/17 09:21:45;;;;;;;7.40;6.63;;;30.70;39.10;;;;;;4949810;28;20463;-49
2022/08/17 09:24:22;;;;;;;6.43;5.83;;;30.70;39.30;;;;;;4947325;28;20538;-46
2022/08/17 09:26:58;;;;;;;6.53;6.03;;;30.70;39.50;;;;;;4948935;28;20816;-47
2022/08/17 09:29:28;;;;;;;7.70;5.90;;;30.70;39.60;;;;;;4948174;28;20958;-48
2022/08/17 09:32:02;;;;;;;5.93;5.53;;;30.70;39.70;;;;;;4939205;28;20450;-49
2022/08/17 09:34:43;;;;;;;6.67;5.93;;;30.70;40.00;;;;;;4939230;28;20463;-48
2022/08/17 09:37:21;;;;;;;7.70;6.63;;;30.70;39.90;;;;;;4939278;28;20555;-45
2022/08/17 09:40:08;;;;;;;6.30;5.80;;;30.80;39.50;;;;;;4947523;28;20455;-45
2022/08/17 09:42:55;;;;;;;8.27;6.20;;;30.80;39.40;;;;;;4942130;28;20443;-49
2022/08/17 09:45:33;;;;;;;6.50;5.93;;;30.70;39.30;;;;;;4937914;28;20486;-45
2022/08/17 09:48:13;;;;;;;6.73;6.00;;;30.70;39.30;;;;;;4938510;28;20455;-48
2022/08/17 09:51:09;;;;;;;7.83;5.97;;;30.70;39.40;;;;;;4939260;28;20463;-47
2022/08/17 09:53:37;;;;;;;6.47;5.90;;;30.80;39.40;;;;;;4929613;28;20480;-45
2022/08/17 09:56:22;;;;;;;6.70;6.20;;;30.80;39.40;;;;;;4937615;28;20492;-46
2022/08/17 09:59:10;;;;;;;8.03;6.70;;;30.70;39.50;;;;;;4941704;28;20566;-46
2022/08/17 10:01:47;;;;;;;7.17;6.47;;;30.70;39.40;;;;;;4941219;28;20574;-47
2022/08/17 10:04:18;;;;;;;6.73;6.27;;;30.70;39.60;;;;;;4938271;28;20485;-47
2022/08/17 10:06:57;;;;;;;8.83;6.10;;;30.70;39.90;;;;;;4941187;28;20456;-48
2022/08/17 10:09:48;;;;;;;6.73;6.10;;;30.70;39.80;;;;;;4943832;28;20487;-45
2022/08/17 10:12:32;;;;;;;8.30;6.30;;;30.80;40.60;;;;;;4948698;28;20466;-48
2022/08/17 10:15:06;;;;;;;8.10;6.70;;;30.80;40.10;;;;;;4948429;28;20526;-45
2022/08/17 10:17:39;;;;;;;6.60;5.97;;;30.80;39.50;;;;;;4940837;28;20495;-45
2022/08/17 10:20:07;;;;;;;6.77;5.90;;;30.90;39.40;;;;;;4946248;28;20494;-46
2022/08/17 10:28:28;;;;;;;7.03;6.40;;;31.00;39.10;;;;;;4940883;28;20483;-47
2022/08/17 10:30:58;;;;;;;6.17;5.67;;;31.10;38.90;;;;;;4947316;28;21155;-48
2022/08/17 10:33:31;;;;;;;8.47;6.10;;;31.10;38.90;;;;;;4946561;28;20955;-45
2022/08/17 10:35:56;;;;;;;9.63;6.80;;;31.20;38.80;;;;;;4944382;28;20989;-48
2022/08/17 10:38:35;;;;;;;6.77;6.07;;;31.20;39.00;;;;;;4941270;28;20447;-48
2022/08/17 10:41:39;;;;;;;6.90;5.97;;;31.10;39.00;;;;;;4944211;28;20655;-46
2022/08/17 10:44:38;;;;;;;7.40;6.77;;;31.00;39.30;;;;;;4946586;28;20498;-45
2022/08/17 10:47:13;;;;;;;7.00;5.63;;;31.00;39.20;;;;;;4948649;28;20459;-44
2022/08/17 10:49:54;;;;;;;6.47;5.87;;;31.00;39.10;;;;;;4949097;28;20466;-45
2022/08/17 10:52:26;;;;;;;7.10;5.43;;;31.10;39.00;;;;;;4945151;28;20467;-45
2022/08/17 10:54:55;;;;;;;5.77;5.30;;;31.10;38.80;;;;;;4952031;29;20903;-45
2022/08/17 10:57:30;;;;;;;5.97;5.30;;;31.10;38.70;;;;;;4948442;28;20451;-44
2022/08/17 10:59:58;;;;;;;5.47;5.00;;;31.10;38.70;;;;;;4947249;28;20462;-44
2022/08/17 11:02:30;;;;;;;5.67;4.90;;;30.90;38.60;;;;;;4944872;28;20459;-44
2022/08/17 11:05:11;;;;;;;5.63;4.70;;;30.60;38.40;;;;;;4949856;28;20518;-44
2022/08/17 11:07:56;;;;;;;5.73;5.20;;;30.50;38.00;;;;;;4951447;28;20857;-44
2022/08/17 11:10:48;;;;;;;4.17;3.77;;;30.70;37.50;;;;;;4945410;28;20447;-44
2022/08/17 11:13:43;;;;;;;4.20;3.90;;;30.90;37.20;;;;;;4951798;28;20494;-45
2022/08/17 11:16:38;;;;;;;8.27;4.73;;;31.10;36.80;;;;;;4947450;28;20491;-45
2022/08/17 11:19:30;;;;;;;5.30;4.87;;;31.20;36.70;;;;;;4941367;28;20455;-44
2022/08/17 11:22:25;;;;;;;4.57;4.27;;;31.30;36.60;;;;;;4948083;28;21373;-46
2022/08/17 11:24:52;;;;;;;4.50;4.10;;;31.20;36.50;;;;;;4950456;28;20459;-45
2022/08/17 11:27:21;;;;;;;8.60;5.20;;;31.20;36.50;;;;;;4948531;28;20534;-46
2022/08/17 11:29:58;;;;;;;5.20;4.70;;;31.20;36.70;;;;;;4947954;28;20452;-45
2022/08/17 11:32:44;;;;;;;4.70;4.40;;;31.00;37.20;;;;;;4943111;28;20451;-45
2022/08/17 11:35:16;;;;;;;4.47;4.17;;;30.80;37.80;;;;;;4943033;28;20586;-45
2022/08/17 11:38:06;;;;;;;4.87;4.17;;;30.40;38.80;;;;;;4945482;28;20459;-44
2022/08/17 11:40:59;;;;;;;4.67;4.27;;;30.00;39.50;;;;;;4944895;28;20455;-44
2022/08/17 11:43:59;;;;;;;6.30;4.80;;;30.10;40.10;;;;;;4948450;28;20578;-47
2022/08/17 11:53:05;;;;;;;4.73;4.00;;;30.00;40.40;;;;;;4933349;28;20598;-46
2022/08/17 11:55:34;;;;;;;5.83;4.00;;;30.20;40.20;;;;;;4944158;28;20491;-47
2022/08/17 11:58:00;;;;;;;3.93;3.63;;;30.30;40.30;;;;;;4942408;28;20771;-45
2022/08/17 12:00:48;;;;;;;4.07;3.73;;;30.40;40.10;;;;;;4935623;28;20517;-47
2022/08/17 12:03:32;;;;;;;3.87;3.57;;;30.50;40.00;;;;;;4938929;28;20479;-47
2022/08/17 12:06:16;;;;;;;4.07;3.67;;;30.60;39.70;;;;;;4939459;28;20451;-46
2022/08/17 12:08:50;;;;;;;4.87;3.87;;;30.70;39.60;;;;;;4938440;28;20459;-47
2022/08/17 12:11:23;;;;;;;3.93;3.63;;;30.70;39.40;;;;;;4925394;29;20456;-49
2022/08/17 12:13:53;;;;;;;4.20;3.90;;;30.70;39.30;;;;;;4944578;28;20500;-48
2022/08/17 12:16:20;;;;;;;4.33;3.93;;;30.60;39.50;;;;;;4942864;28;20494;-49
2022/08/17 12:18:58;;;;;;;13.13;3.93;;;30.60;39.90;;;;;;4951351;28;20531;-47
2022/08/17 12:21:33;;;;;;;4.13;3.73;;;30.60;40.00;;;;;;4951588;28;20447;-48
2022/08/17 12:24:21;;;;;;;8.70;4.27;;;30.50;40.30;;;;;;4952533;28;20450;-49
2022/08/17 12:26:54;;;;;;;3.40;3.20;;;30.70;39.80;;;;;;4947892;28;20594;-48
2022/08/17 12:29:19;;;;;;;4.30;3.70;;;30.80;38.50;;;;;;4948616;28;20493;-47
2022/08/17 12:31:48;;;;;;;5.30;3.90;;;30.80;38.50;;;;;;4947993;28;20479;-46
2022/08/17 12:34:24;;;;;;;3.80;3.43;;;31.00;38.20;;;;;;4942580;28;20280;-49
2022/08/17 12:36:53;;;;;;;3.93;3.63;;;31.10;37.30;;;;;;4947666;28;20834;-47
2022/08/17 12:39:23;;;;;;;3.73;3.53;;;31.20;37.20;;;;;;4950024;28;20808;-47
2022/08/17 12:41:52;;;;;;;4.10;3.80;;;31.30;37.10;;;;;;4949191;28;20451;-48
2022/08/17 12:44:22;;;;;;;3.60;3.40;;;31.40;37.90;;;;;;4948484;28;20506;-49
2022/08/17 12:46:53;;;;;;;4.70;3.77;;;31.40;36.80;;;;;;4947560;28;21060;-47
2022/08/17 12:49:35;;;;;;;6.20;3.80;;;31.50;37.60;;;;;;4945598;28;20582;-49
2022/08/17 12:52:18;;;;;;;3.97;3.67;;;31.60;36.80;;;;;;4949576;28;20448;-49
2022/08/17 12:54:54;;;;;;;3.37;3.07;;;31.70;36.20;;;;;;4944245;28;20479;-47
2022/08/17 12:57:33;;;;;;;4.17;3.83;;;32.00;36.00;;;;;;4949734;28;20899;-49
2022/08/17 13:00:26;;;;;;;4.30;4.00;;;32.20;35.10;;;;;;4953522;29;20490;-48
2022/08/17 13:02:57;;;;;;;4.90;4.43;;;32.30;34.60;;;;;;4952645;28;20490;-47
2022/08/17 13:05:29;;;;;;;7.97;4.47;;;32.40;33.50;;;;;;4953313;29;20462;-47
2022/08/17 13:07:57;;;;;;;4.40;4.00;;;32.50;33.80;;;;;;4954516;28;20471;-49
2022/08/17 13:10:29;;;;;;;4.77;4.47;;;32.60;34.00;;;;;;4952378;28;20530;-49
2022/08/17 13:12:56;;;;;;;6.50;4.10;;;32.70;32.50;;;;;;4951852;29;20475;-46
2022/08/17 13:15:30;;;;;;;4.90;4.50;;;32.90;33.00;;;;;;4953222;28;20986;-47
2022/08/17 13:18:01;;;;;;;5.27;4.17;;;32.90;33.10;;;;;;4950690;28;20466;-46
2022/08/17 13:20:26;;;;;;;4.33;4.10;;;33.00;32.90;;;;;;4949824;28;20461;-49
2022/08/17 13:22:55;;;;;;;5.03;4.27;;;33.00;33.20;;;;;;4951688;28;20559;-46
2022/08/17 13:25:22;;;;;;;5.30;4.90;;;33.20;33.40;;;;;;4952878;28;20564;-48
2022/08/17 13:27:50;;;;;;;4.70;4.40;;;33.40;32.00;;;;;;4954386;29;20460;-50
2022/08/17 13:30:22;;;;;;;4.70;4.30;;;33.40;31.10;;;;;;4953117;28;20443;-46
2022/08/17 13:32:48;;;;;;;4.03;3.73;;;33.60;30.80;;;;;;4952627;28;20440;-50
2022/08/17 13:35:34;;;;;;;4.57;4.27;;;33.60;30.80;;;;;;4952782;28;20553;-46
2022/08/17 13:38:07;;;;;;;4.40;4.03;;;34.00;30.00;;;;;;4953700;28;20726;-46
2022/08/17 13:40:39;;;;;;;4.20;3.80;;;34.10;29.50;;;;;;4949412;28;20448;-45
2022/08/17 13:43:04;;;;;;;5.40;4.90;;;34.30;28.80;;;;;;4947134;28;20512;-45
2022/08/17 13:45:30;;;;;;;4.17;3.87;;;34.40;29.30;;;;;;4944485;28;20570;-45
2022/08/17 13:48:10;;;;;;;4.50;4.10;;;34.50;28.70;;;;;;4946232;28;20202;-46